METAR Data
IDs: Format: Raw Decoded Include TAF

Data at: 2236 UTC 20 Nov 2018

KJSO 202235Z AUTO 36005KT 10SM CLR 13/02 A3030 RMK AO2 T01330020
KJSO 202215Z AUTO 35003KT 10SM CLR 13/02 A3030 RMK AO2 T01370027
KJSO 202135Z AUTO 02005KT 10SM CLR 13/03 A3030 RMK AO2 T01380031
KJSO 202115Z AUTO 36003KT 10SM CLR 13/03 A3031 RMK AO2 T01400032
KJSO 202055Z AUTO 00000KT 10SM CLR 13/02 A3030 RMK AO2 T01400029
KJSO 202035Z AUTO 33005KT 10SM CLR 13/03 A3031 RMK AO2 T01400033
KJSO 202015Z AUTO 33005KT 10SM CLR 13/03 A3031 RMK AO2 T01390036
KJSO 201955Z AUTO 30005KT 10SM CLR 13/03 A3031 RMK AO2 T01400041
KJSO 201935Z AUTO 02006KT 10SM CLR 13/03 A3031 RMK AO2 T01400038
KJSO 201915Z AUTO 02005KT 10SM CLR 13/04 A3032 RMK AO2 T01330043
KJSO 201855Z AUTO 02005KT 10SM CLR 13/04 A3033 RMK AO2 T01330044
KJSO 201835Z AUTO 01005KT 10SM CLR 12/04 A3034 RMK AO2 T01250044
KJSO 201815Z AUTO 03004KT 10SM CLR 12/04 A3035 RMK AO2 T01210046
KJSO 201755Z AUTO 36005KT 10SM CLR 11/04 A3036 RMK AO2 T01150045
KJSO 201735Z AUTO 01006KT 10SM CLR 11/04 A3037 RMK AO2 T01110046
KJSO 201715Z AUTO 05005KT 10SM CLR 10/04 A3038 RMK AO2 T01070044
KJSO 201655Z AUTO 02004KT 10SM CLR 10/03 A3038 RMK AO2 T01050038
KJSO 201635Z AUTO 02006KT 10SM CLR 10/03 A3038 RMK AO2 T00980035
KJSO 201615Z AUTO 02006KT 10SM CLR 09/04 A3039 RMK AO2 T00920042
KJSO 201555Z AUTO 03004KT 10SM CLR 08/03 A3038 RMK AO2 T00820041
KJSO 201355Z AUTO 36003KT 10SM CLR 03/02 A3034 RMK AO2 T00400021
KJSO 201335Z AUTO 01004KT 10SM CLR 03/01 A3033 RMK AO2 T00350019
KJSO 201315Z AUTO 01004KT 10SM CLR 02/01 A3033 RMK AO2 T00300017
KJSO 201255Z AUTO 01005KT 10SM CLR 02/01 A3032 RMK AO2 T00300016
KJSO 201235Z AUTO 01004KT 10SM CLR 02/01 A3031 RMK AO2 T00300016
KJSO 201215Z AUTO 01005KT 10SM CLR 03/01 A3031 RMK AO2 T00310017
KJSO 201155Z AUTO 01004KT 10SM CLR 03/01 A3030 RMK AO2 T00350018
KJSO 201135Z AUTO 01005KT 10SM CLR 03/01 A3029 RMK AO2 T00350018
KJSO 201115Z AUTO 01004KT 10SM CLR 03/01 A3029 RMK AO2 T00350018
KJSO 201055Z AUTO 01004KT 10SM CLR 03/01 A3028 RMK AO2 T00360017
KJSO 201035Z AUTO 01004KT 10SM CLR 03/01 A3028 RMK AO2 T00400018
KJSO 201015Z AUTO 36003KT 10SM CLR 03/01 A3028 RMK AO2 T00400017
KJSO 200955Z AUTO 35003KT 10SM CLR 03/01 A3028 RMK AO2 T00400017
KJSO 200935Z AUTO 36004KT 10SM CLR 04/01 A3028 RMK AO2 T00430018
KJSO 200915Z AUTO 36003KT 10SM CLR 04/01 A3028 RMK AO2 T00430018
KJSO 200855Z AUTO 35003KT 10SM CLR 04/02 A3028 RMK AO2 T00420020
KJSO 200835Z AUTO 36003KT 10SM CLR 04/01 A3027 RMK AO2 T00450019
KJSO 200815Z AUTO 01003KT 10SM CLR 04/02 A3027 RMK AO2 T00450020
KJSO 200755Z AUTO 00000KT 10SM CLR 04/02 A3027 RMK AO2 T00440020
KJSO 200735Z AUTO 00000KT 10SM CLR 04/02 A3027 RMK AO2 T00460022
KJSO 200715Z AUTO 36003KT 10SM CLR 05/02 A3027 RMK AO2 T00480023
KJSO 200655Z AUTO 36003KT 10SM CLR 05/02 A3027 RMK AO2 T00500023
KJSO 200635Z AUTO 36004KT 10SM CLR 05/02 A3026 RMK AO2 T00510025
KJSO 200615Z AUTO 36004KT 10SM CLR 05/02 A3026 RMK AO2 T00520025
KJSO 200555Z AUTO 36004KT 10SM CLR 05/02 A3026 RMK AO2 T00540026
KJSO 200535Z AUTO 36004KT 10SM CLR 05/02 A3025 RMK AO2 T00550027
KJSO 200515Z AUTO 36003KT 10SM CLR 05/02 A3025 RMK AO2 T00550027
KJSO 200455Z AUTO 36003KT 10SM CLR 05/02 A3025 RMK AO2 T00570030
KJSO 200435Z AUTO 35004KT 10SM CLR 05/03 A3024 RMK AO2 T00560031
KJSO 200415Z AUTO 36003KT 10SM CLR 05/03 A3024 RMK AO2 T00570034
KJSO 200355Z AUTO 00000KT 10SM CLR 06/03 A3024 RMK AO2 T00610035
KJSO 200335Z AUTO 00000KT 10SM CLR 06/03 A3024 RMK AO2 T00630036
KJSO 200315Z AUTO 00000KT 10SM CLR 06/03 A3023 RMK AO2 T00670038
KJSO 200255Z AUTO 31003KT 10SM CLR 07/03 A3023 RMK AO2 T00710040
KJSO 200235Z AUTO 32003KT 10SM CLR 07/04 A3022 RMK AO2 T00710042
KJSO 200215Z AUTO 33004KT 10SM CLR 07/04 A3021 RMK AO2 T00700045
KJSO 200155Z AUTO 33003KT 10SM CLR 07/04 A3021 RMK AO2 T00730046
KJSO 200135Z AUTO 00000KT 10SM SCT050 07/05 A3021 RMK AO2 T00760047
KJSO 200115Z AUTO 00000KT 10SM SCT055 07/05 A3020 RMK AO2 T00750049
KJSO 200055Z AUTO 00000KT 10SM SCT055 07/05 A3020 RMK AO2 T00740055
KJSO 200035Z AUTO 00000KT 10SM CLR 07/05 A3019 RMK AO2 T00750057
KJSO 200015Z AUTO 00000KT 10SM CLR 07/06 A3019 RMK AO2 T00740060
KJSO 192355Z AUTO 00000KT 10SM SCT065 07/06 A3018 RMK AO2 T00740063
KJSO 192335Z AUTO 00000KT 10SM BKN065 08/06 A3018 RMK AO2 T00810061
KJSO 192315Z AUTO 00000KT 10SM OVC065 08/06 A3017 RMK AO2 T00860058
KJSO 192255Z AUTO 00000KT 10SM OVC065 08/06 A3017 RMK AO2 T00900061
KJSO 192235Z AUTO 00000KT 10SM OVC065 08/06 A3017 RMK AO2 T00900059
KJSO 192215Z AUTO 00000KT 10SM OVC065 08/05 A3017 RMK AO2 T00910058
KJSO 192155Z AUTO 00000KT 10SM OVC065 08/06 A3016 RMK AO2 T00900058
KJSO 192135Z AUTO 00000KT 10SM OVC065 08/05 A3017 RMK AO2 T00870055
KJSO 192115Z AUTO 00000KT 10SM OVC065 08/05 A3016 RMK AO2 T00860056
KJSO 192055Z AUTO 04003KT 10SM SCT030 OVC065 08/05 A3016 RMK AO2 T00850054
KJSO 192035Z AUTO 00000KT 10SM BKN030 OVC065 08/05 A3016 RMK AO2 T00810052
KJSO 192015Z AUTO 33004KT 10SM SCT011 OVC030 08/05 A3016 RMK AO2 T00830056
KJSO 191955Z AUTO 34003KT 10SM SCT011 BKN032 OVC065 08/05 A3018 RMK AO2 T00810054
KJSO 191935Z AUTO 03003KT 10SM SCT011 SCT029 OVC035 07/05 A3018 RMK AO2 T00730049
KJSO 191915Z AUTO 35004KT 10SM SCT009 BKN031 OVC038 07/05 A3019 RMK AO2 T00700047
KJSO 191855Z AUTO 33005KT 10SM BKN009 BKN037 OVC050 06/05 A3021 RMK AO2 T00650048
KJSO 191835Z AUTO 01003KT 10SM SCT007 BKN032 OVC050 06/04 A3021 RMK AO2 T00610044
KJSO 191815Z AUTO 00000KT 10SM SCT007 OVC032 05/04 A3022 RMK AO2 T00550042
KJSO 191755Z AUTO 02004KT 10SM SCT007 OVC030 05/03 A3023 RMK AO2 T00520040
KJSO 191735Z AUTO 36003KT 10SM OVC030 05/03 A3025 RMK AO2 T00500040
KJSO 191715Z AUTO 36005KT 10SM OVC030 05/03 A3025 RMK AO2 T00480037
KJSO 191415Z AUTO 34003KT 5SM DZ SCT020 OVC031 03/03 A3024 RMK AO2 T00360033
KJSO 191355Z AUTO 01006KT 5SM BR BKN020 OVC029 03/03 A3022 RMK AO2 T00350033
KJSO 191335Z AUTO 36006KT 5SM -DZ BKN018 OVC029 03/03 A3022 RMK AO2 T00340032
KJSO 191315Z AUTO 35004KT 5SM BR SCT004 OVC018 03/03 A3022 RMK AO2 LTG DSNT SE T00320032
KJSO 191255Z AUTO 35007KT 4SM BR BKN004 OVC018 03/03 A3021 RMK AO2 P0001 T00330033
KJSO 191235Z AUTO 01005KT 4SM DZ BKN004 OVC017 03/03 A3021 RMK AO2 LTG DSNT S P0001 T00350035
KJSO 191215Z AUTO 34005KT 3SM DZ BKN002 BKN011 OVC032 03/03 A3021 RMK AO2 T00370037
KJSO 191155Z AUTO 35005KT 3SM +RA SCT002 BKN018 OVC034 03/03 A3021 RMK AO2 LTG DSNT NE AND S P0018 T00370036
KJSO 191135Z AUTO 36004KT 3SM RA SCT004 BKN014 OVC018 03/03 A3020 RMK AO2 LTG DSNT NE AND S P0016 T00390037
KJSO 191115Z AUTO 28004KT 1 3/4SM -VCTSRA SCT004 BKN008 BKN012 03/03 A3021 RMK AO2 LTG DSNT N NE AND S P0011 T00400038
KJSO 191055Z AUTO 36003KT 1 1/4SM -TSRA SCT008 BKN020 BKN028 04/03 A3019 RMK AO2 LTG DSNT E S AND NW P0017 T00420038